Time;durP1;ratioP1;P1;durP2;ratioP2;P2;SDS_P1;SDS_P2;PMS_P1;PMS_P2;Temp;Humidity;BMP_temperature;BMP_pressure;BME280_temperature;BME280_humidity;BME280_pressure;Samples;Min_cycle;Max_cycle;Signal;HPM_P1;HPM_P2
2022/07/21 00:01:07;;;;;;;4.80;4.00;;;27.70;51.80;;;;;;5014118;28;20464;-57
2022/07/21 00:03:33;;;;;;;3.35;3.05;;;27.70;51.80;;;;;;5016592;28;20026;-59
2022/07/21 00:05:59;;;;;;;4.90;3.10;;;27.70;51.80;;;;;;5017307;28;20425;-59
2022/07/21 00:08:25;;;;;;;3.78;3.38;;;27.70;51.80;;;;;;5016265;28;20034;-58
2022/07/21 00:10:52;;;;;;;3.75;3.13;;;27.70;51.80;;;;;;5015693;28;20033;-59
2022/07/21 00:13:18;;;;;;;3.35;3.05;;;27.70;51.80;;;;;;5015731;28;20025;-59
2022/07/21 00:15:44;;;;;;;3.58;3.17;;;27.70;51.80;;;;;;5014608;28;20042;-60
2022/07/21 00:18:10;;;;;;;3.28;2.88;;;27.60;51.80;;;;;;5016225;28;20025;-58
2022/07/21 00:20:37;;;;;;;4.28;3.20;;;27.60;51.80;;;;;;5014565;28;20032;-59
2022/07/21 00:23:03;;;;;;;3.53;2.97;;;27.70;51.80;;;;;;5015068;28;20030;-60
2022/07/21 00:25:29;;;;;;;3.40;3.10;;;27.60;51.80;;;;;;5015463;28;20084;-55
2022/07/21 00:27:55;;;;;;;2.97;2.67;;;27.60;51.80;;;;;;5015136;28;20037;-60
2022/07/21 00:30:21;;;;;;;3.33;2.83;;;27.60;52.40;;;;;;5007341;28;20030;-57
2022/07/21 00:32:47;;;;;;;3.40;2.80;;;27.60;51.80;;;;;;5015634;28;20076;-57
2022/07/21 00:35:13;;;;;;;2.70;2.50;;;27.60;51.80;;;;;;5016409;28;20156;-60
2022/07/21 00:37:41;;;;;;;3.63;3.08;;;27.60;51.80;;;;;;5014760;28;20045;-58
2022/07/21 00:40:08;;;;;;;2.90;2.65;;;27.60;51.80;;;;;;5014700;28;20519;-59
2022/07/21 00:42:34;;;;;;;4.28;2.88;;;27.60;52.40;;;;;;5013212;28;20030;-57
2022/07/21 00:45:00;;;;;;;3.53;2.90;;;27.60;51.80;;;;;;5014240;28;20318;-54
2022/07/21 00:47:28;;;;;;;3.03;2.60;;;27.60;51.80;;;;;;5015540;28;20037;-56
2022/07/21 00:49:56;;;;;;;3.20;2.90;;;27.60;51.80;;;;;;5014243;28;20034;-57
2022/07/21 00:52:22;;;;;;;3.45;2.95;;;27.50;51.80;;;;;;5015245;28;20030;-60
2022/07/21 00:54:48;;;;;;;4.40;3.00;;;27.60;51.90;;;;;;5014522;28;20507;-57
2022/07/21 00:57:15;;;;;;;3.53;2.95;;;27.50;51.80;;;;;;5004721;28;20053;-60
2022/07/21 00:59:42;;;;;;;3.58;2.88;;;27.60;51.90;;;;;;5014732;28;20018;-60
2022/07/21 01:02:09;;;;;;;3.33;2.97;;;27.50;51.80;;;;;;5015861;28;20033;-56
2022/07/21 01:04:35;;;;;;;3.38;3.05;;;27.50;51.80;;;;;;5015093;28;20025;-58
2022/07/21 01:07:03;;;;;;;3.10;2.80;;;27.60;51.90;;;;;;5015913;28;20353;-58
2022/07/21 01:09:28;;;;;;;3.78;3.30;;;27.50;51.90;;;;;;5010052;28;20110;-59
2022/07/21 01:11:54;;;;;;;2.85;2.60;;;27.50;51.90;;;;;;5014103;28;20120;-56
2022/07/21 01:14:20;;;;;;;3.72;3.08;;;27.50;51.90;;;;;;5015581;28;20049;-58
2022/07/21 01:16:46;;;;;;;3.10;2.80;;;27.50;51.90;;;;;;5009575;28;20045;-60
2022/07/21 01:19:12;;;;;;;4.20;3.45;;;27.50;51.90;;;;;;5012608;28;20605;-60
2022/07/21 01:21:44;;;;;;;3.80;3.05;;;27.50;51.90;;;;;;5010489;28;20041;-60
2022/07/21 01:24:10;;;;;;;4.13;3.08;;;27.50;51.90;;;;;;5009107;28;20048;-59
2022/07/21 01:26:41;;;;;;;3.55;3.20;;;27.50;51.90;;;;;;5014218;28;20430;-60
2022/07/21 01:29:08;;;;;;;4.25;3.20;;;27.50;51.90;;;;;;5013735;28;20030;-57
2022/07/21 01:31:35;;;;;;;3.33;3.03;;;27.50;51.90;;;;;;5015455;28;20034;-59
2022/07/21 01:34:00;;;;;;;4.05;2.95;;;27.50;51.90;;;;;;5015254;28;20033;-59
2022/07/21 01:36:26;;;;;;;3.10;2.80;;;27.50;51.80;;;;;;5014219;28;20046;-60
2022/07/21 01:41:36;;;;;;;3.08;2.78;;;27.50;51.80;;;;;;5014685;28;20042;-60
2022/07/21 01:44:05;;;;;;;3.70;2.75;;;27.40;51.70;;;;;;5014283;28;20026;-60
2022/07/21 01:46:34;;;;;;;3.05;2.75;;;27.40;51.70;;;;;;5014606;28;20036;-58
2022/07/21 01:48:59;;;;;;;3.25;2.95;;;27.40;51.70;;;;;;5013041;28;20030;-59
2022/07/21 01:51:26;;;;;;;3.38;2.83;;;27.40;51.70;;;;;;5014205;28;20488;-58
2022/07/21 01:53:52;;;;;;;2.95;2.75;;;27.40;51.70;;;;;;5015286;28;20076;-59
2022/07/21 01:56:22;;;;;;;3.78;2.90;;;27.40;51.70;;;;;;5014093;28;20042;-57
2022/07/21 01:58:49;;;;;;;3.10;2.80;;;27.40;51.60;;;;;;5012518;28;20449;-60
2022/07/21 02:01:20;;;;;;;3.10;2.85;;;27.40;51.60;;;;;;4995179;28;20033;-59
2022/07/21 02:03:46;;;;;;;3.10;2.80;;;27.40;51.60;;;;;;5001794;28;20104;-58
2022/07/21 02:06:13;;;;;;;3.20;2.90;;;27.40;51.60;;;;;;5014804;28;20121;-57
2022/07/21 02:08:39;;;;;;;3.63;3.00;;;27.40;51.60;;;;;;5015021;28;20046;-56
2022/07/21 02:11:06;;;;;;;2.80;2.53;;;27.40;51.60;;;;;;5012688;28;20034;-57
2022/07/21 02:13:32;;;;;;;3.08;2.60;;;27.30;51.50;;;;;;5014797;28;20030;-58
2022/07/21 02:15:58;;;;;;;3.70;2.90;;;27.30;51.60;;;;;;5014376;28;20457;-61
2022/07/21 02:18:24;;;;;;;3.55;2.60;;;27.40;51.60;;;;;;5014704;28;20033;-59
2022/07/21 02:20:54;;;;;;;3.10;2.80;;;27.30;51.60;;;;;;5012634;28;20034;-60
2022/07/21 02:23:21;;;;;;;2.97;2.67;;;27.30;51.60;;;;;;5016490;28;20038;-56
2022/07/21 02:25:47;;;;;;;3.95;3.20;;;27.30;51.60;;;;;;5015036;28;20049;-57
2022/07/21 02:28:13;;;;;;;3.33;2.90;;;27.30;51.60;;;;;;5006821;28;20390;-59
2022/07/21 02:30:39;;;;;;;3.92;3.53;;;27.30;51.60;;;;;;5016703;28;20064;-57
2022/07/21 02:33:05;;;;;;;3.35;2.92;;;27.30;51.60;;;;;;5017901;28;20053;-57
2022/07/21 02:35:32;;;;;;;3.67;3.17;;;27.30;51.70;;;;;;5018331;28;20084;-58
2022/07/21 02:37:58;;;;;;;3.60;3.20;;;27.30;51.70;;;;;;5018871;28;20041;-56
2022/07/21 02:40:24;;;;;;;3.85;3.10;;;27.30;51.70;;;;;;5017024;28;20088;-57
2022/07/21 02:42:50;;;;;;;3.30;3.00;;;27.30;51.70;;;;;;5005910;28;20030;-59
2022/07/21 02:45:16;;;;;;;3.63;2.72;;;27.30;51.70;;;;;;5017111;28;20025;-59
2022/07/21 02:47:55;;;;;;;4.50;2.97;;;27.30;51.70;;;;;;5017383;28;20326;-57
2022/07/21 02:50:23;;;;;;;3.60;3.28;;;27.30;51.70;;;;;;5017194;28;20040;-56
2022/07/21 02:52:50;;;;;;;3.38;2.90;;;27.30;51.70;;;;;;5018213;28;20099;-59
2022/07/21 02:55:16;;;;;;;3.25;2.95;;;27.30;51.70;;;;;;5016704;28;20073;-59
2022/07/21 02:57:42;;;;;;;3.53;3.22;;;27.20;51.70;;;;;;5014680;28;20108;-59
2022/07/21 03:00:10;;;;;;;3.42;3.13;;;27.20;51.70;;;;;;5016643;28;20133;-58
2022/07/21 03:02:36;;;;;;;3.53;3.22;;;27.20;51.70;;;;;;5017432;28;20053;-61
2022/07/21 03:05:03;;;;;;;3.40;3.10;;;27.20;51.70;;;;;;5017624;28;20068;-58
2022/07/21 03:07:29;;;;;;;3.17;2.88;;;27.20;51.70;;;;;;5017622;28;20104;-58
2022/07/21 03:09:55;;;;;;;3.83;3.22;;;27.20;51.70;;;;;;5011521;28;21253;-56
2022/07/21 03:12:21;;;;;;;3.88;3.40;;;27.20;51.70;;;;;;5016080;28;20365;-58
2022/07/21 03:14:47;;;;;;;3.88;3.33;;;27.20;51.70;;;;;;5016591;28;20060;-57
2022/07/21 03:17:12;;;;;;;3.95;3.40;;;27.20;51.80;;;;;;5017509;28;20156;-58
2022/07/21 03:19:39;;;;;;;3.75;3.35;;;27.20;51.80;;;;;;5016125;28;20030;-59
2022/07/21 03:22:05;;;;;;;3.60;3.28;;;27.20;51.80;;;;;;5017006;28;20044;-59
2022/07/21 03:24:31;;;;;;;3.05;2.72;;;27.20;51.80;;;;;;5016393;28;20022;-60
2022/07/21 03:26:57;;;;;;;3.95;3.55;;;27.20;51.80;;;;;;5015138;28;20060;-58
2022/07/21 03:29:23;;;;;;;4.38;3.85;;;27.20;51.90;;;;;;5016566;28;20058;-59
2022/07/21 03:31:49;;;;;;;4.20;3.13;;;27.20;51.90;;;;;;5016755;28;20547;-59
2022/07/21 03:34:15;;;;;;;4.65;3.83;;;27.20;51.90;;;;;;5015971;28;20038;-57
2022/07/21 03:36:41;;;;;;;3.65;3.35;;;27.20;52.00;;;;;;5016471;28;20125;-56
2022/07/21 03:39:07;;;;;;;3.78;3.38;;;27.20;52.00;;;;;;5015423;28;20036;-58
2022/07/21 03:41:33;;;;;;;4.07;3.45;;;27.10;51.90;;;;;;5015091;28;20025;-57
2022/07/21 03:43:58;;;;;;;3.53;3.22;;;27.10;51.90;;;;;;5016865;28;20029;-59
2022/07/21 03:46:24;;;;;;;3.83;3.30;;;27.10;51.90;;;;;;5016808;28;20036;-58
2022/07/21 03:48:50;;;;;;;4.10;3.47;;;27.10;52.00;;;;;;5003155;28;20034;-59
2022/07/21 03:51:16;;;;;;;4.78;3.28;;;27.20;52.70;;;;;;5016264;28;20040;-59
2022/07/21 03:53:41;;;;;;;3.42;3.13;;;27.10;52.00;;;;;;5015771;28;20074;-56
2022/07/21 03:56:07;;;;;;;3.78;3.35;;;27.10;52.00;;;;;;5016760;28;20449;-58
2022/07/21 03:58:33;;;;;;;3.88;3.28;;;27.10;52.00;;;;;;5016918;28;20030;-57
2022/07/21 04:00:59;;;;;;;3.30;2.95;;;27.10;52.00;;;;;;5013313;28;20048;-59
2022/07/21 04:03:25;;;;;;;3.53;3.22;;;27.10;52.00;;;;;;5016786;28;20034;-57
2022/07/21 04:05:51;;;;;;;3.63;3.33;;;27.10;52.00;;;;;;5016553;28;20429;-55
2022/07/21 04:08:16;;;;;;;3.42;3.13;;;27.10;52.10;;;;;;5013370;28;20026;-58
2022/07/21 04:10:43;;;;;;;3.30;2.83;;;27.10;52.10;;;;;;5014658;28;20034;-58
2022/07/21 04:13:11;;;;;;;3.63;3.20;;;27.10;52.20;;;;;;5016317;28;20042;-59
2022/07/21 04:15:38;;;;;;;3.58;3.28;;;27.10;52.20;;;;;;5015507;28;20038;-58
2022/07/21 04:18:05;;;;;;;3.83;3.30;;;27.10;52.20;;;;;;5016264;28;20465;-60
2022/07/21 04:20:31;;;;;;;3.72;3.30;;;27.10;52.20;;;;;;5014738;28;20054;-57
2022/07/21 04:22:57;;;;;;;3.55;3.20;;;27.10;52.30;;;;;;5002407;28;20038;-59
2022/07/21 04:25:23;;;;;;;3.38;3.08;;;27.10;52.30;;;;;;5005168;28;20030;-54
2022/07/21 04:27:50;;;;;;;3.15;2.85;;;27.00;52.20;;;;;;5015397;28;20033;-56
2022/07/21 04:30:18;;;;;;;4.28;3.30;;;27.00;52.20;;;;;;5011735;28;20437;-57
2022/07/21 04:32:45;;;;;;;4.07;3.60;;;27.00;52.20;;;;;;5015992;28;20117;-58
2022/07/21 04:35:12;;;;;;;4.57;3.50;;;27.00;52.30;;;;;;5015488;28;20467;-59
2022/07/21 04:37:37;;;;;;;3.22;2.92;;;27.00;52.30;;;;;;5015172;28;20342;-57
2022/07/21 04:40:05;;;;;;;4.47;3.20;;;27.00;52.30;;;;;;5013874;28;20026;-58
2022/07/21 04:42:32;;;;;;;4.78;3.78;;;27.00;52.30;;;;;;5015373;28;20060;-60
2022/07/21 04:44:57;;;;;;;3.53;3.13;;;27.00;52.30;;;;;;5015486;28;20457;-55
2022/07/21 04:47:23;;;;;;;3.55;3.20;;;27.00;52.30;;;;;;5015075;28;20129;-58
2022/07/21 04:49:49;;;;;;;3.33;3.03;;;27.00;52.90;;;;;;5013342;28;20488;-57
2022/07/21 04:52:15;;;;;;;3.42;3.13;;;27.00;52.30;;;;;;5015164;28;20117;-59
2022/07/21 04:54:41;;;;;;;4.03;3.60;;;27.00;52.30;;;;;;5015675;28;20406;-60
2022/07/21 04:57:07;;;;;;;3.70;3.20;;;27.00;52.30;;;;;;5000936;28;20042;-55
2022/07/21 04:59:33;;;;;;;4.22;3.47;;;27.00;52.30;;;;;;5008192;28;20477;-60
2022/07/21 05:01:59;;;;;;;3.90;3.50;;;27.00;52.30;;;;;;5007147;28;20035;-58
2022/07/21 05:04:25;;;;;;;4.13;3.72;;;27.00;52.30;;;;;;5002952;28;20041;-60
2022/07/21 05:06:52;;;;;;;3.67;3.28;;;27.00;52.40;;;;;;5015068;28;20030;-59
2022/07/21 05:09:17;;;;;;;3.92;3.53;;;26.90;52.30;;;;;;5005898;28;20030;-58
2022/07/21 05:11:43;;;;;;;4.10;3.70;;;27.00;52.40;;;;;;4995558;28;20030;-59
2022/07/21 05:14:09;;;;;;;3.95;3.55;;;27.00;52.40;;;;;;5006062;28;20034;-60
2022/07/21 05:16:35;;;;;;;4.60;4.20;;;26.90;52.30;;;;;;4995875;28;20049;-60
2022/07/21 05:19:01;;;;;;;4.10;3.70;;;26.90;52.30;;;;;;5006234;28;20061;-60
2022/07/21 05:21:27;;;;;;;4.60;4.00;;;26.90;52.30;;;;;;5014021;28;20528;-53
2022/07/21 05:23:53;;;;;;;3.80;3.40;;;26.90;52.30;;;;;;5013695;28;20161;-56
2022/07/21 05:26:18;;;;;;;4.93;4.07;;;26.90;52.30;;;;;;5015339;28;20088;-59
2022/07/21 05:28:44;;;;;;;4.47;3.65;;;26.90;52.40;;;;;;5013715;28;20037;-58
2022/07/21 05:31:10;;;;;;;4.20;3.85;;;26.90;52.30;;;;;;5013799;28;20056;-59
2022/07/21 05:33:36;;;;;;;5.32;4.25;;;26.90;52.40;;;;;;5011930;28;20115;-59
2022/07/21 05:36:03;;;;;;;4.07;3.67;;;26.90;52.40;;;;;;5014716;28;20357;-56
2022/07/21 05:38:29;;;;;;;4.80;4.30;;;26.90;52.40;;;;;;5014300;28;20041;-59
2022/07/21 05:40:55;;;;;;;4.55;4.05;;;26.90;52.50;;;;;;5014965;28;20116;-60
2022/07/21 05:43:21;;;;;;;4.28;3.83;;;26.90;52.50;;;;;;5014967;28;20041;-58
2022/07/21 05:45:47;;;;;;;5.40;3.92;;;26.90;52.50;;;;;;5012634;28;20042;-58
2022/07/21 05:48:14;;;;;;;4.95;4.45;;;26.90;52.50;;;;;;5007364;28;20030;-58
2022/07/21 05:50:40;;;;;;;5.70;4.40;;;26.80;52.50;;;;;;4995734;28;20030;-55
2022/07/21 05:53:06;;;;;;;5.15;4.63;;;26.90;52.60;;;;;;5012740;28;20064;-53
2022/07/21 05:55:31;;;;;;;5.50;4.90;;;26.90;52.60;;;;;;5015445;28;20049;-59
2022/07/21 05:57:57;;;;;;;5.10;4.60;;;26.90;52.60;;;;;;4998703;28;20058;-57
2022/07/21 06:00:23;;;;;;;4.95;4.35;;;26.90;52.60;;;;;;5006746;28;20360;-55
2022/07/21 06:02:50;;;;;;;5.80;5.20;;;26.80;52.50;;;;;;5017579;28;20022;-58
2022/07/21 06:05:16;;;;;;;5.07;4.65;;;26.80;52.60;;;;;;5017833;28;20113;-57
2022/07/21 06:07:42;;;;;;;5.53;4.68;;;26.80;52.60;;;;;;5017804;28;20113;-57
2022/07/21 06:10:08;;;;;;;6.25;4.88;;;26.80;52.60;;;;;;5017592;28;20345;-55
2022/07/21 06:12:34;;;;;;;5.80;5.13;;;26.80;52.60;;;;;;5017244;28;20022;-55
2022/07/21 06:15:00;;;;;;;5.50;5.00;;;26.80;52.60;;;;;;5009583;28;20492;-56
2022/07/21 06:17:26;;;;;;;5.88;5.28;;;26.80;52.60;;;;;;5017603;28;20030;-57
2022/07/21 06:19:52;;;;;;;5.88;5.22;;;26.80;52.60;;;;;;5018614;28;20066;-57
2022/07/21 06:22:17;;;;;;;5.85;4.95;;;26.80;52.60;;;;;;5013649;28;20117;-56
2022/07/21 06:24:43;;;;;;;6.07;5.47;;;26.80;52.60;;;;;;5018261;28;20041;-59
2022/07/21 06:27:09;;;;;;;6.90;5.72;;;26.80;52.60;;;;;;5014890;28;20500;-58
2022/07/21 06:29:35;;;;;;;5.97;5.30;;;26.80;52.60;;;;;;5017371;28;20049;-60
2022/07/21 06:32:01;;;;;;;5.38;4.88;;;26.80;52.60;;;;;;5016017;28;20026;-60
2022/07/21 06:34:27;;;;;;;5.65;5.00;;;26.80;52.50;;;;;;5017339;28;20034;-59
2022/07/21 06:36:53;;;;;;;5.95;5.30;;;26.80;52.50;;;;;;5017060;28;20404;-58
2022/07/21 06:39:19;;;;;;;5.65;5.15;;;26.80;52.50;;;;;;5014702;28;20501;-58
2022/07/21 06:41:45;;;;;;;5.38;4.88;;;26.80;52.50;;;;;;5015000;28;20032;-54
2022/07/21 06:44:12;;;;;;;6.47;4.82;;;26.80;52.50;;;;;;5015777;28;20022;-58
2022/07/21 06:46:38;;;;;;;5.55;4.82;;;26.80;52.50;;;;;;5014995;28;20026;-59
2022/07/21 06:49:04;;;;;;;4.57;4.13;;;26.80;52.40;;;;;;5016924;28;20442;-57
2022/07/21 06:51:30;;;;;;;5.20;4.70;;;26.80;52.50;;;;;;5012336;28;20033;-58
2022/07/21 06:53:56;;;;;;;4.50;4.10;;;26.80;52.40;;;;;;5016315;28;20065;-59
2022/07/21 06:56:21;;;;;;;4.90;3.88;;;26.80;52.40;;;;;;5012073;28;20054;-59
2022/07/21 06:58:47;;;;;;;5.00;3.97;;;26.80;52.40;;;;;;4997965;28;20041;-56
2022/07/21 07:01:16;;;;;;;4.18;3.78;;;26.90;52.40;;;;;;5010505;28;20117;-60
2022/07/21 07:03:43;;;;;;;4.47;4.07;;;26.90;52.40;;;;;;5012858;28;20038;-56
2022/07/21 07:06:09;;;;;;;4.10;3.70;;;26.90;52.30;;;;;;5017485;28;20033;-56
2022/07/21 07:08:36;;;;;;;4.35;3.95;;;26.90;52.30;;;;;;5015517;28;20022;-57
2022/07/21 07:11:03;;;;;;;4.40;3.90;;;26.90;52.30;;;;;;5009256;28;20093;-56
2022/07/21 07:13:28;;;;;;;4.82;4.15;;;26.90;52.20;;;;;;4998028;28;20105;-55
2022/07/21 07:15:54;;;;;;;4.50;4.10;;;26.90;52.20;;;;;;5007816;28;20132;-58
2022/07/21 07:18:22;;;;;;;4.47;4.07;;;26.90;52.20;;;;;;5009961;28;20033;-59
2022/07/21 07:20:47;;;;;;;7.18;4.63;;;26.90;52.20;;;;;;5017679;28;20393;-54
2022/07/21 07:23:13;;;;;;;5.47;4.40;;;26.90;52.10;;;;;;4999755;28;20089;-55
2022/07/21 07:25:39;;;;;;;4.45;4.05;;;26.90;52.10;;;;;;4997953;28;20092;-58
2022/07/21 07:28:06;;;;;;;4.57;4.18;;;26.90;52.10;;;;;;5017424;28;20418;-58
2022/07/21 07:30:32;;;;;;;4.38;3.97;;;26.90;52.10;;;;;;5017271;28;20030;-55
2022/07/21 07:32:58;;;;;;;4.47;4.07;;;26.90;52.10;;;;;;5007823;28;20411;-58
2022/07/21 07:35:24;;;;;;;4.47;4.03;;;26.90;52.00;;;;;;5010542;28;20034;-59
2022/07/21 07:37:50;;;;;;;4.25;3.78;;;26.90;52.00;;;;;;5017186;28;20045;-55
2022/07/21 07:40:20;;;;;;;4.57;4.05;;;26.90;52.00;;;;;;5016448;28;20030;-56
2022/07/21 07:42:47;;;;;;;4.78;3.88;;;26.90;52.00;;;;;;5014965;28;20360;-58
2022/07/21 07:45:13;;;;;;;4.70;4.00;;;26.90;51.90;;;;;;5017221;28;20041;-53
2022/07/21 07:47:40;;;;;;;4.30;3.90;;;26.90;51.90;;;;;;4999542;28;20101;-57
2022/07/21 07:50:09;;;;;;;4.35;3.83;;;26.90;51.90;;;;;;4997500;28;20041;-57
2022/07/21 07:52:36;;;;;;;3.55;3.22;;;26.90;51.90;;;;;;4997244;28;20060;-57
2022/07/21 07:55:06;;;;;;;3.95;3.60;;;26.90;51.90;;;;;;4997868;28;20108;-57
2022/07/21 07:57:33;;;;;;;4.53;3.78;;;26.90;51.90;;;;;;5010162;28;20061;-58
2022/07/21 07:59:59;;;;;;;5.00;4.20;;;26.90;51.90;;;;;;5016395;28;20137;-59
2022/07/21 08:02:24;;;;;;;5.05;4.10;;;26.90;51.90;;;;;;5016191;28;20520;-59
2022/07/21 08:04:50;;;;;;;4.90;4.20;;;26.90;51.80;;;;;;5016370;28;20026;-53
2022/07/21 08:07:16;;;;;;;4.47;3.90;;;26.90;51.80;;;;;;5015753;28;20037;-54
2022/07/21 08:09:42;;;;;;;4.38;3.97;;;26.90;51.80;;;;;;5016404;28;20033;-57
2022/07/21 08:12:08;;;;;;;4.35;3.80;;;26.90;51.70;;;;;;5010563;28;20034;-56
2022/07/21 08:14:33;;;;;;;5.50;3.83;;;26.90;51.70;;;;;;5016025;28;20144;-56
2022/07/21 08:16:59;;;;;;;4.63;3.92;;;26.90;51.60;;;;;;5015602;28;20045;-55
2022/07/21 08:19:26;;;;;;;4.53;4.13;;;27.00;51.70;;;;;;5016494;28;20045;-56
2022/07/21 08:21:52;;;;;;;4.75;4.25;;;26.90;51.60;;;;;;5015532;28;20116;-59
2022/07/21 08:24:18;;;;;;;4.95;4.30;;;26.90;51.60;;;;;;5015257;28;20033;-57
2022/07/21 08:26:45;;;;;;;5.50;4.05;;;26.90;52.20;;;;;;5014909;28;20033;-58
2022/07/21 08:29:11;;;;;;;5.10;4.32;;;27.00;51.60;;;;;;5015811;28;20112;-59
2022/07/21 08:31:37;;;;;;;5.40;4.20;;;27.00;51.50;;;;;;5013981;28;20113;-57
2022/07/21 08:34:02;;;;;;;5.20;4.70;;;26.90;51.50;;;;;;5009601;28;20346;-57
2022/07/21 08:36:28;;;;;;;5.55;4.85;;;26.90;51.40;;;;;;5015307;28;20092;-57
2022/07/21 08:38:54;;;;;;;5.90;4.65;;;27.00;51.40;;;;;;5010632;28;20227;-59
2022/07/21 08:41:20;;;;;;;5.05;4.18;;;27.00;51.40;;;;;;5015357;28;20152;-57
2022/07/21 08:43:48;;;;;;;6.40;4.55;;;27.00;51.40;;;;;;5008487;28;20441;-59
2022/07/21 08:46:15;;;;;;;4.55;3.85;;;27.00;51.40;;;;;;4995359;28;20040;-59
2022/07/21 08:48:42;;;;;;;6.30;4.05;;;27.00;51.40;;;;;;5002838;28;20025;-57
2022/07/21 08:51:08;;;;;;;4.22;3.83;;;27.00;51.40;;;;;;5004980;28;20072;-57
2022/07/21 08:53:34;;;;;;;4.45;3.85;;;27.00;51.40;;;;;;4997069;28;20046;-58
2022/07/21 08:55:59;;;;;;;4.53;4.05;;;27.00;51.40;;;;;;4997094;28;20041;-55
2022/07/21 08:58:25;;;;;;;4.53;3.90;;;27.00;51.40;;;;;;5014992;28;20468;-52
2022/07/21 09:00:51;;;;;;;4.15;3.75;;;27.00;51.40;;;;;;5007379;28;20061;-54
2022/07/21 09:03:27;;;;;;;4.80;3.90;;;27.00;51.40;;;;;;5011364;28;20034;-57
2022/07/21 09:06:15;;;;;;;4.25;3.67;;;27.00;51.40;;;;;;5008545;28;20030;-56
2022/07/21 09:08:45;;;;;;;4.60;4.03;;;27.00;51.40;;;;;;5007337;28;20065;-56
2022/07/21 09:11:12;;;;;;;4.05;3.65;;;27.00;51.50;;;;;;5009967;28;20041;-59
2022/07/21 09:13:42;;;;;;;5.88;4.57;;;27.00;51.50;;;;;;5013325;28;20433;-56
2022/07/21 09:16:09;;;;;;;6.93;4.88;;;27.00;51.50;;;;;;5014764;28;20054;-57
2022/07/21 09:18:48;;;;;;;11.25;6.75;;;27.00;51.70;;;;;;5014902;28;20037;-55
2022/07/21 09:21:17;;;;;;;14.05;7.65;;;27.00;52.10;;;;;;5014652;28;20040;-59
2022/07/21 09:23:43;;;;;;;9.88;5.93;;;27.10;52.40;;;;;;5011648;28;20101;-55
2022/07/21 09:26:09;;;;;;;10.30;6.00;;;27.10;52.30;;;;;;5011751;28;20117;-57
2022/07/21 09:28:34;;;;;;;7.05;5.90;;;27.10;52.20;;;;;;5012221;28;20030;-58
2022/07/21 09:31:06;;;;;;;7.72;5.35;;;27.10;52.30;;;;;;5008410;28;20030;-58
2022/07/21 09:33:33;;;;;;;9.27;5.40;;;27.10;52.40;;;;;;5014198;28;20129;-57
2022/07/21 09:36:12;;;;;;;6.35;4.97;;;27.10;52.30;;;;;;5013428;28;20044;-55
2022/07/21 09:38:44;;;;;;;6.50;4.30;;;27.10;52.30;;;;;;5014597;28;20037;-57
2022/07/21 09:41:19;;;;;;;5.85;3.78;;;27.10;52.20;;;;;;5014927;28;20425;-56
2022/07/21 09:43:50;;;;;;;4.97;3.80;;;27.10;52.20;;;;;;5014030;28;20084;-58
2022/07/21 09:46:20;;;;;;;4.35;3.65;;;27.10;52.30;;;;;;5013107;28;20033;-56
2022/07/21 09:48:48;;;;;;;3.42;3.13;;;27.10;52.30;;;;;;5014338;28;20045;-56
2022/07/21 09:51:23;;;;;;;4.40;3.20;;;27.10;52.30;;;;;;5008021;28;20061;-57
2022/07/21 09:54:01;;;;;;;3.67;2.67;;;27.10;52.40;;;;;;5008311;28;20046;-60
2022/07/21 09:56:30;;;;;;;3.50;2.78;;;27.00;52.30;;;;;;5010623;28;20041;-55
2022/07/21 09:58:57;;;;;;;3.75;2.70;;;27.00;52.40;;;;;;5009538;28;20148;-53
2022/07/21 10:01:24;;;;;;;3.88;3.00;;;27.10;52.60;;;;;;5003557;28;20033;-52
2022/07/21 10:03:51;;;;;;;2.40;2.20;;;27.00;52.60;;;;;;5009578;28;20092;-56
2022/07/21 10:06:20;;;;;;;2.22;2.00;;;27.00;52.60;;;;;;5007184;28;20025;-60
2022/07/21 10:08:46;;;;;;;3.33;2.42;;;27.00;52.70;;;;;;5009534;28;20401;-53
2022/07/21 10:11:12;;;;;;;2.45;1.98;;;27.00;52.90;;;;;;5007746;28;20331;-58
2022/07/21 10:13:40;;;;;;;3.92;2.30;;;27.00;52.80;;;;;;4998980;28;20030;-58
2022/07/21 10:16:09;;;;;;;2.78;1.73;;;27.00;52.90;;;;;;5008976;28;20045;-61
2022/07/21 10:18:46;;;;;;;3.38;2.00;;;27.00;52.90;;;;;;5005634;28;20037;-54
2022/07/21 10:21:31;;;;;;;2.30;1.67;;;27.00;53.00;;;;;;5006346;28;20457;-57
2022/07/21 10:23:56;;;;;;;;;;;27.00;53.00;;;;;;5003688;28;20113;-55
2022/07/21 10:26:24;;;;;;;4.45;1.50;;;26.90;52.90;;;;;;4998195;28;20550;-54
2022/07/21 10:28:50;;;;;;;1.77;1.27;;;26.90;53.00;;;;;;5007493;28;20041;-55
2022/07/21 10:31:25;;;;;;;1.63;1.20;;;26.90;53.10;;;;;;5010036;28;20033;-57
2022/07/21 10:33:53;;;;;;;3.30;1.50;;;26.90;53.20;;;;;;5009777;28;20053;-60
2022/07/21 10:36:29;;;;;;;1.70;1.30;;;27.00;53.40;;;;;;5012455;28;20103;-59
2022/07/21 10:39:12;;;;;;;2.17;1.60;;;27.00;53.40;;;;;;5012796;28;20118;-61
2022/07/21 10:41:39;;;;;;;2.13;1.03;;;27.00;53.40;;;;;;5012335;28;20049;-57
2022/07/21 10:44:23;;;;;;;1.65;1.20;;;27.00;53.40;;;;;;5006100;28;20353;-55
2022/07/21 10:47:11;;;;;;;1.17;1.08;;;27.00;53.40;;;;;;5009388;28;20049;-62
2022/07/21 10:49:47;;;;;;;1.35;1.25;;;27.10;53.50;;;;;;5015046;28;20062;-58
2022/07/21 10:52:35;;;;;;;2.47;1.58;;;27.10;53.60;;;;;;5015003;28;20040;-62
2022/07/21 10:55:12;;;;;;;1.63;1.52;;;27.10;53.60;;;;;;5013691;28;20034;-61
2022/07/21 10:57:42;;;;;;;1.88;1.58;;;27.10;53.70;;;;;;5008717;28;20057;-58
2022/07/21 11:00:33;;;;;;;2.20;1.60;;;27.10;53.70;;;;;;5011643;28;20030;-59
2022/07/21 11:03:02;;;;;;;1.70;1.60;;;27.10;53.80;;;;;;5016743;28;20048;-59
2022/07/21 11:05:33;;;;;;;1.58;1.48;;;27.10;53.80;;;;;;5017235;28;20026;-55
2022/07/21 11:08:16;;;;;;;1.95;1.70;;;27.10;53.90;;;;;;5017015;28;20026;-51
2022/07/21 11:10:53;;;;;;;3.67;1.80;;;27.20;54.00;;;;;;5013680;28;20030;-56
2022/07/21 11:13:25;;;;;;;2.75;1.83;;;27.10;54.00;;;;;;5008451;28;20034;-57
2022/07/21 11:15:56;;;;;;;1.73;1.50;;;27.20;54.10;;;;;;5011413;28;20045;-57
2022/07/21 11:18:32;;;;;;;2.22;1.50;;;27.10;54.10;;;;;;5017334;28;20041;-59
2022/07/21 11:21:09;;;;;;;1.63;1.52;;;27.20;54.20;;;;;;5015257;28;20042;-59
2022/07/21 11:23:46;;;;;;;1.92;1.30;;;27.20;54.20;;;;;;5016025;28;20038;-59
2022/07/21 11:26:16;;;;;;;2.92;1.30;;;27.20;54.20;;;;;;5011603;28;20030;-59
2022/07/21 11:28:43;;;;;;;1.52;0.90;;;27.20;54.20;;;;;;4997950;28;20026;-56
2022/07/21 11:31:24;;;;;;;1.50;1.10;;;27.20;54.30;;;;;;5009934;28;20037;-53
2022/07/21 11:33:50;;;;;;;1.80;1.08;;;27.20;54.30;;;;;;5009376;28;20084;-54
2022/07/21 11:36:31;;;;;;;1.20;0.80;;;27.20;54.20;;;;;;5016026;28;20030;-53
2022/07/21 11:39:09;;;;;;;1.17;1.08;;;27.20;54.10;;;;;;5010082;28;20125;-56
2022/07/21 11:41:36;;;;;;;2.60;0.90;;;27.20;54.10;;;;;;5013015;28;20033;-59
2022/07/21 11:44:04;;;;;;;1.38;0.85;;;27.30;54.30;;;;;;5010693;28;20354;-59
2022/07/21 11:46:46;;;;;;;1.45;0.98;;;27.30;54.30;;;;;;5007062;28;20033;-59
2022/07/21 11:49:11;;;;;;;0.88;0.80;;;27.30;54.30;;;;;;5012182;28;20030;-54
2022/07/21 11:51:37;;;;;;;1.02;0.93;;;27.30;54.30;;;;;;5010314;28;20037;-60
2022/07/21 11:54:03;;;;;;;1.75;0.98;;;27.30;54.20;;;;;;5010766;28;20354;-60
2022/07/21 11:56:39;;;;;;;1.02;0.90;;;27.30;54.10;;;;;;5010132;28;20046;-62
2022/07/21 11:59:10;;;;;;;1.25;1.10;;;27.30;54.70;;;;;;5009374;28;20607;-62
2022/07/21 12:01:54;;;;;;;1.15;1.00;;;27.30;54.10;;;;;;5009115;28;20041;-62
2022/07/21 12:04:48;;;;;;;1.20;1.08;;;27.30;54.10;;;;;;5009298;28;20041;-61
2022/07/21 12:07:18;;;;;;;1.35;0.75;;;27.30;54.20;;;;;;5005313;28;20073;-59
2022/07/21 12:09:46;;;;;;;1.60;1.00;;;27.30;54.20;;;;;;5004132;28;20449;-63
2022/07/21 12:12:14;;;;;;;1.80;1.02;;;27.30;54.10;;;;;;5005143;28;20113;-60
2022/07/21 12:14:42;;;;;;;1.67;0.95;;;27.30;54.10;;;;;;5004920;28;20034;-59
2022/07/21 12:17:09;;;;;;;2.05;1.10;;;27.30;54.00;;;;;;5003262;28;20042;-60
2022/07/21 12:19:35;;;;;;;1.65;1.00;;;27.30;54.00;;;;;;5002928;28;20054;-62
2022/07/21 12:22:03;;;;;;;1.55;1.25;;;27.30;53.90;;;;;;5010288;28;20045;-60
2022/07/21 12:24:52;;;;;;;1.10;1.00;;;27.30;53.80;;;;;;5003152;28;20056;-61
2022/07/21 12:27:18;;;;;;;1.30;1.00;;;27.30;53.70;;;;;;5009874;28;20064;-57
2022/07/21 12:29:45;;;;;;;2.78;1.58;;;27.30;53.70;;;;;;5008039;28;20026;-57
2022/07/21 12:32:14;;;;;;;1.52;1.20;;;27.30;53.70;;;;;;5005321;28;20033;-63
2022/07/21 12:34:51;;;;;;;1.30;1.17;;;27.30;53.70;;;;;;5006782;28;20116;-53
2022/07/21 12:37:18;;;;;;;1.30;1.20;;;27.30;53.60;;;;;;5010955;28;20433;-62
2022/07/21 12:40:01;;;;;;;1.60;1.08;;;27.30;53.60;;;;;;5011335;28;20045;-61
2022/07/21 12:42:31;;;;;;;1.45;1.20;;;27.30;53.50;;;;;;5010061;28;20033;-64
2022/07/21 12:44:59;;;;;;;1.38;1.20;;;27.30;53.50;;;;;;5010650;28;20116;-58
2022/07/21 12:47:26;;;;;;;1.40;1.20;;;27.30;53.40;;;;;;5009149;28;20034;-57
2022/07/21 12:50:01;;;;;;;2.90;1.00;;;27.30;53.40;;;;;;5005970;28;20331;-60
2022/07/21 12:52:30;;;;;;;1.45;1.10;;;27.30;53.30;;;;;;5005304;28;20099;-61
2022/07/21 12:55:00;;;;;;;1.52;1.10;;;27.30;53.30;;;;;;5001864;28;20042;-60